sensor_id;sensor_type;location;lat;lon;timestamp;pressure;altitude;pressure_sealevel;temperature;humidity
55347;BME280;41218;55.700;38.270;2023-06-04T00:02:58;99948.84;;;6.89;66.05
55347;BME280;41218;55.700;38.270;2023-06-04T00:07:59;99971.06;;;6.96;66.07
55347;BME280;41218;55.700;38.270;2023-06-04T00:13:00;99970.81;;;6.89;65.74
55347;BME280;41218;55.700;38.270;2023-06-04T00:18:00;99995.38;;;7.06;66.02
55347;BME280;41218;55.700;38.270;2023-06-04T00:23:01;99980.28;;;6.79;65.67
55347;BME280;41218;55.700;38.270;2023-06-04T00:28:02;99947.00;;;6.47;65.42
55347;BME280;41218;55.700;38.270;2023-06-04T00:33:02;99943.75;;;6.33;65.62
55347;BME280;41218;55.700;38.270;2023-06-04T00:38:03;99982.81;;;6.51;65.73
55347;BME280;41218;55.700;38.270;2023-06-04T00:43:04;99992.19;;;6.50;65.66
55347;BME280;41218;55.700;38.270;2023-06-04T00:48:06;99948.44;;;6.11;65.89
55347;BME280;41218;55.700;38.270;2023-06-04T00:53:07;99980.97;;;6.21;65.76
55347;BME280;41218;55.700;38.270;2023-06-04T00:58:08;99955.44;;;6.00;65.58
55347;BME280;41218;55.700;38.270;2023-06-04T01:03:19;99964.34;;;5.97;65.32
55347;BME280;41218;55.700;38.270;2023-06-04T01:08:23;99968.88;;;5.93;65.61
55347;BME280;41218;55.700;38.270;2023-06-04T01:13:24;100041.56;;;6.37;65.58
55347;BME280;41218;55.700;38.270;2023-06-04T01:18:27;99995.53;;;5.92;65.40
55347;BME280;41218;55.700;38.270;2023-06-04T01:23:51;100061.25;;;6.18;65.50
55347;BME280;41218;55.700;38.270;2023-06-04T01:29:00;100059.31;;;6.19;65.32
55347;BME280;41218;55.700;38.270;2023-06-04T01:34:02;100020.59;;;5.82;65.24
55347;BME280;41218;55.700;38.270;2023-06-04T01:39:02;100003.28;;;5.60;65.53
55347;BME280;41218;55.700;38.270;2023-06-04T01:44:03;100019.53;;;5.66;65.19
55347;BME280;41218;55.700;38.270;2023-06-04T01:49:03;100036.81;;;5.66;65.52
55347;BME280;41218;55.700;38.270;2023-06-04T01:54:06;100031.81;;;5.59;65.32
55347;BME280;41218;55.700;38.270;2023-06-04T01:59:07;100023.31;;;5.52;65.26
55347;BME280;41218;55.700;38.270;2023-06-04T02:04:07;100024.78;;;5.50;65.74
55347;BME280;41218;55.700;38.270;2023-06-04T02:09:08;100059.38;;;5.63;65.58
55347;BME280;41218;55.700;38.270;2023-06-04T02:14:09;100057.47;;;5.55;65.44
55347;BME280;41218;55.700;38.270;2023-06-04T02:19:09;100054.09;;;5.49;65.38
55347;BME280;41218;55.700;38.270;2023-06-04T02:24:13;100040.75;;;5.39;65.47
55347;BME280;41218;55.700;38.270;2023-06-04T02:29:14;100058.03;;;5.39;66.11
55347;BME280;41218;55.700;38.270;2023-06-04T02:34:14;100082.63;;;5.57;66.07
55347;BME280;41218;55.700;38.270;2023-06-04T02:39:16;100080.09;;;5.43;65.94
55347;BME280;41218;55.700;38.270;2023-06-04T02:44:16;100078.97;;;5.44;66.37
55347;BME280;41218;55.700;38.270;2023-06-04T02:49:17;100135.34;;;5.80;66.44
55347;BME280;41218;55.700;38.270;2023-06-04T02:54:18;100077.84;;;5.45;67.12
55347;BME280;41218;55.700;38.270;2023-06-04T02:59:19;100081.22;;;5.51;67.46
55347;BME280;41218;55.700;38.270;2023-06-04T03:04:19;100092.78;;;5.65;67.63
55347;BME280;41218;55.700;38.270;2023-06-04T03:09:20;100113.19;;;5.85;68.04
55347;BME280;41218;55.700;38.270;2023-06-04T03:14:21;100136.00;;;6.15;68.53
55347;BME280;41218;55.700;38.270;2023-06-04T03:19:23;100122.28;;;6.15;68.53
55347;BME280;41218;55.700;38.270;2023-06-04T03:24:24;100140.47;;;6.29;68.60
55347;BME280;41218;55.700;38.270;2023-06-04T03:29:25;100116.72;;;6.24;68.38
55347;BME280;41218;55.700;38.270;2023-06-04T03:34:26;100152.72;;;6.61;68.06
55347;BME280;41218;55.700;38.270;2023-06-04T03:39:27;100195.22;;;7.06;68.08
55347;BME280;41218;55.700;38.270;2023-06-04T03:44:27;100162.56;;;6.83;68.27
55347;BME280;41218;55.700;38.270;2023-06-04T03:49:28;100148.97;;;6.87;68.53
55347;BME280;41218;55.700;38.270;2023-06-04T03:54:29;100176.47;;;7.08;68.30
55347;BME280;41218;55.700;38.270;2023-06-04T03:59:29;100152.97;;;7.10;67.93
55347;BME280;41218;55.700;38.270;2023-06-04T04:04:30;100165.16;;;7.21;67.97
55347;BME280;41218;55.700;38.270;2023-06-04T04:09:34;100176.16;;;7.42;67.99
55347;BME280;41218;55.700;38.270;2023-06-04T04:14:34;100228.44;;;7.88;67.95
55347;BME280;41218;55.700;38.270;2023-06-04T04:19:36;100177.81;;;7.68;68.02
55347;BME280;41218;55.700;38.270;2023-06-04T04:24:36;100186.34;;;7.88;67.97
55347;BME280;41218;55.700;38.270;2023-06-04T04:29:38;100210.38;;;8.12;67.59
55347;BME280;41218;55.700;38.270;2023-06-04T04:34:49;100232.72;;;8.44;67.14
55347;BME280;41218;55.700;38.270;2023-06-04T04:39:51;100199.03;;;8.26;67.47
55347;BME280;41218;55.700;38.270;2023-06-04T04:44:52;100175.72;;;8.23;66.59
55347;BME280;41218;55.700;38.270;2023-06-04T04:49:53;100198.25;;;8.37;66.87
55347;BME280;41218;55.700;38.270;2023-06-04T04:54:53;100204.00;;;8.57;66.64
55347;BME280;41218;55.700;38.270;2023-06-04T04:59:56;100208.38;;;8.70;66.44
55347;BME280;41218;55.700;38.270;2023-06-04T05:04:56;100200.09;;;8.70;66.38
55347;BME280;41218;55.700;38.270;2023-06-04T05:09:57;100196.06;;;8.80;66.10
55347;BME280;41218;55.700;38.270;2023-06-04T05:14:59;100222.75;;;9.04;66.05
55347;BME280;41218;55.700;38.270;2023-06-04T05:19:59;100238.38;;;9.25;65.95
55347;BME280;41218;55.700;38.270;2023-06-04T05:25:12;100243.69;;;9.46;65.61
55347;BME280;41218;55.700;38.270;2023-06-04T05:30:13;100203.94;;;9.34;65.40
55347;BME280;41218;55.700;38.270;2023-06-04T05:35:14;100214.09;;;9.58;65.02
55347;BME280;41218;55.700;38.270;2023-06-04T05:40:15;100272.19;;;10.06;64.81
55347;BME280;41218;55.700;38.270;2023-06-04T05:45:16;100250.97;;;9.94;64.22
55347;BME280;41218;55.700;38.270;2023-06-04T05:50:17;100253.22;;;10.05;64.13
55347;BME280;41218;55.700;38.270;2023-06-04T05:55:17;100211.84;;;9.92;63.69
55347;BME280;41218;55.700;38.270;2023-06-04T06:00:18;100236.00;;;10.11;62.90
55347;BME280;41218;55.700;38.270;2023-06-04T06:05:19;100214.53;;;10.05;62.83
55347;BME280;41218;55.700;38.270;2023-06-04T06:10:19;100235.59;;;10.25;62.49
55347;BME280;41218;55.700;38.270;2023-06-04T06:15:21;100258.72;;;10.49;62.16
55347;BME280;41218;55.700;38.270;2023-06-04T06:20:22;100252.66;;;10.59;62.01
55347;BME280;41218;55.700;38.270;2023-06-04T06:25:24;100228.13;;;10.41;61.63
55347;BME280;41218;55.700;38.270;2023-06-04T06:30:24;100243.81;;;10.53;61.49
55347;BME280;41218;55.700;38.270;2023-06-04T06:35:25;100240.41;;;10.60;61.52
55347;BME280;41218;55.700;38.270;2023-06-04T06:40:25;100247.16;;;10.78;61.21
55347;BME280;41218;55.700;38.270;2023-06-04T06:45:26;100226.47;;;10.88;60.61
55347;BME280;41218;55.700;38.270;2023-06-04T06:50:27;100233.31;;;10.94;60.41
55347;BME280;41218;55.700;38.270;2023-06-04T06:55:27;100245.44;;;11.06;60.32
55347;BME280;41218;55.700;38.270;2023-06-04T07:00:28;100246.84;;;11.15;59.49
55347;BME280;41218;55.700;38.270;2023-06-04T07:05:28;100264.38;;;11.23;59.19
55347;BME280;41218;55.700;38.270;2023-06-04T07:10:31;100239.47;;;11.23;59.02
55347;BME280;41218;55.700;38.270;2023-06-04T07:15:35;100241.63;;;11.30;59.01
55347;BME280;41218;55.700;38.270;2023-06-04T07:20:36;100259.25;;;11.60;58.68
55347;BME280;41218;55.700;38.270;2023-06-04T07:25:36;100241.19;;;11.67;57.88
55347;BME280;41218;55.700;38.270;2023-06-04T07:30:38;100255.75;;;11.83;57.38
55347;BME280;41218;55.700;38.270;2023-06-04T07:35:38;100276.47;;;11.89;57.17
55347;BME280;41218;55.700;38.270;2023-06-04T07:40:41;100276.22;;;11.78;57.34
55347;BME280;41218;55.700;38.270;2023-06-04T07:45:42;100278.88;;;11.91;57.07
55347;BME280;41218;55.700;38.270;2023-06-04T07:50:42;100272.22;;;11.95;56.62
55347;BME280;41218;55.700;38.270;2023-06-04T07:55:43;100319.69;;;12.36;56.27
55347;BME280;41218;55.700;38.270;2023-06-04T08:00:44;100272.47;;;12.29;55.85
55347;BME280;41218;55.700;38.270;2023-06-04T08:05:44;100252.19;;;12.25;55.30
55347;BME280;41218;55.700;38.270;2023-06-04T08:10:45;100312.22;;;12.60;54.89
55347;BME280;41218;55.700;38.270;2023-06-04T08:15:48;100260.94;;;12.50;54.59
55347;BME280;41218;55.700;38.270;2023-06-04T08:20:49;100246.28;;;12.50;54.34
55347;BME280;41218;55.700;38.270;2023-06-04T08:25:50;100262.38;;;12.67;54.24
55347;BME280;41218;55.700;38.270;2023-06-04T08:30:51;100258.66;;;12.56;54.40
55347;BME280;41218;55.700;38.270;2023-06-04T08:35:52;100249.47;;;12.52;54.10
55347;BME280;41218;55.700;38.270;2023-06-04T08:40:58;100263.09;;;12.60;53.71
55347;BME280;41218;55.700;38.270;2023-06-04T08:46:03;100275.22;;;12.75;53.69
55347;BME280;41218;55.700;38.270;2023-06-04T08:51:10;100275.31;;;12.82;53.08
55347;BME280;41218;55.700;38.270;2023-06-04T08:56:11;100260.16;;;12.76;52.93
55347;BME280;41218;55.700;38.270;2023-06-04T09:01:13;100281.78;;;12.90;52.50
55347;BME280;41218;55.700;38.270;2023-06-04T09:06:15;100272.03;;;13.00;52.32
55347;BME280;41218;55.700;38.270;2023-06-04T09:11:18;100274.81;;;13.00;51.80
55347;BME280;41218;55.700;38.270;2023-06-04T09:16:20;100273.63;;;13.01;51.95
55347;BME280;41218;55.700;38.270;2023-06-04T09:21:20;100326.88;;;13.33;51.93
55347;BME280;41218;55.700;38.270;2023-06-04T09:26:21;100288.78;;;13.07;51.64
55347;BME280;41218;55.700;38.270;2023-06-04T09:31:22;100303.19;;;13.16;51.38
55347;BME280;41218;55.700;38.270;2023-06-04T09:36:30;100272.03;;;13.00;51.10
55347;BME280;41218;55.700;38.270;2023-06-04T09:41:31;100276.41;;;13.01;50.80
55347;BME280;41218;55.700;38.270;2023-06-04T09:46:32;100307.97;;;13.16;50.25
55347;BME280;41218;55.700;38.270;2023-06-04T09:51:32;100279.22;;;13.05;49.58
55347;BME280;41218;55.700;38.270;2023-06-04T09:56:40;100289.38;;;13.20;48.67
55347;BME280;41218;55.700;38.270;2023-06-04T10:01:41;100324.44;;;13.58;49.44
55347;BME280;41218;55.700;38.270;2023-06-04T10:06:42;100317.16;;;13.77;48.40
55347;BME280;41218;55.700;38.270;2023-06-04T10:11:47;100279.44;;;13.46;48.15
55347;BME280;41218;55.700;38.270;2023-06-04T10:16:51;100277.84;;;13.45;48.41
55347;BME280;41218;55.700;38.270;2023-06-04T10:21:52;100287.75;;;13.46;47.97
55347;BME280;41218;55.700;38.270;2023-06-04T10:26:54;100274.34;;;13.51;47.95
55347;BME280;41218;55.700;38.270;2023-06-04T10:31:58;100270.16;;;13.65;47.61
55347;BME280;41218;55.700;38.270;2023-06-04T10:36:59;100323.78;;;14.02;48.10
55347;BME280;41218;55.700;38.270;2023-06-04T10:42:00;100327.34;;;13.99;47.90
55347;BME280;41218;55.700;38.270;2023-06-04T10:47:00;100282.56;;;13.74;47.99
55347;BME280;41218;55.700;38.270;2023-06-04T10:52:10;100316.66;;;14.01;47.45
55347;BME280;41218;55.700;38.270;2023-06-04T10:57:14;100298.28;;;13.93;47.27
55347;BME280;41218;55.700;38.270;2023-06-04T11:02:16;100308.34;;;14.05;47.24
55347;BME280;41218;55.700;38.270;2023-06-04T11:07:17;100286.75;;;13.91;47.40
55347;BME280;41218;55.700;38.270;2023-06-04T11:12:18;100294.00;;;13.99;47.17
55347;BME280;41218;55.700;38.270;2023-06-04T11:17:19;100278.22;;;14.11;46.96
55347;BME280;41218;55.700;38.270;2023-06-04T11:22:20;100294.97;;;14.18;46.38
55347;BME280;41218;55.700;38.270;2023-06-04T11:27:21;100261.38;;;13.96;45.74
55347;BME280;41218;55.700;38.270;2023-06-04T11:32:25;100266.03;;;13.85;45.57
55347;BME280;41218;55.700;38.270;2023-06-04T11:37:26;100268.00;;;13.85;45.99
55347;BME280;41218;55.700;38.270;2023-06-04T11:42:30;100280.84;;;13.96;45.99
55347;BME280;41218;55.700;38.270;2023-06-04T11:47:31;100286.03;;;13.98;45.54
55347;BME280;41218;55.700;38.270;2023-06-04T11:52:33;100269.25;;;13.87;45.52
55347;BME280;41218;55.700;38.270;2023-06-04T11:57:33;100265.22;;;13.85;45.69
55347;BME280;41218;55.700;38.270;2023-06-04T12:02:36;100289.34;;;14.11;45.77
55347;BME280;41218;55.700;38.270;2023-06-04T12:07:36;100324.59;;;14.40;45.37
55347;BME280;41218;55.700;38.270;2023-06-04T12:12:37;100294.28;;;14.28;45.44
55347;BME280;41218;55.700;38.270;2023-06-04T12:17:49;100320.66;;;14.45;45.08
55347;BME280;41218;55.700;38.270;2023-06-04T12:22:50;100284.75;;;14.26;45.49
55347;BME280;41218;55.700;38.270;2023-06-04T12:27:52;100302.28;;;14.33;44.72
55347;BME280;41218;55.700;38.270;2023-06-04T12:32:53;100297.03;;;14.25;44.54
55347;BME280;41218;55.700;38.270;2023-06-04T12:37:54;100290.16;;;14.15;44.99
55347;BME280;41218;55.700;38.270;2023-06-04T12:42:54;100292.25;;;14.21;44.76
55347;BME280;41218;55.700;38.270;2023-06-04T12:47:55;100267.72;;;14.34;44.20
55347;BME280;41218;55.700;38.270;2023-06-04T12:52:55;100276.13;;;14.41;44.14
55347;BME280;41218;55.700;38.270;2023-06-04T12:57:56;100301.19;;;14.45;44.11
55347;BME280;41218;55.700;38.270;2023-06-04T13:02:57;100275.16;;;14.23;44.25
55347;BME280;41218;55.700;38.270;2023-06-04T13:07:57;100304.69;;;14.35;44.80
55347;BME280;41218;55.700;38.270;2023-06-04T13:12:59;100285.06;;;14.20;44.86
55347;BME280;41218;55.700;38.270;2023-06-04T13:18:00;100287.44;;;14.18;44.94
55347;BME280;41218;55.700;38.270;2023-06-04T13:23:00;100307.41;;;14.31;44.96
55347;BME280;41218;55.700;38.270;2023-06-04T13:28:03;100285.53;;;14.26;44.71
55347;BME280;41218;55.700;38.270;2023-06-04T13:33:04;100296.56;;;14.56;44.97
55347;BME280;41218;55.700;38.270;2023-06-04T13:38:05;100299.06;;;14.69;44.11
55347;BME280;41218;55.700;38.270;2023-06-04T13:43:06;100274.22;;;14.46;43.70
55347;BME280;41218;55.700;38.270;2023-06-04T13:48:08;100278.50;;;14.39;43.35
55347;BME280;41218;55.700;38.270;2023-06-04T13:53:09;100301.81;;;14.65;44.16
55347;BME280;41218;55.700;38.270;2023-06-04T13:58:11;100313.88;;;14.83;43.65
55347;BME280;41218;55.700;38.270;2023-06-04T14:03:12;100274.34;;;14.60;43.62
55347;BME280;41218;55.700;38.270;2023-06-04T14:08:13;100314.25;;;14.82;43.61
55347;BME280;41218;55.700;38.270;2023-06-04T14:13:13;100319.81;;;14.78;43.91
55347;BME280;41218;55.700;38.270;2023-06-04T14:18:17;100293.84;;;14.60;43.99
55347;BME280;41218;55.700;38.270;2023-06-04T14:23:18;100281.34;;;14.47;44.06
55347;BME280;41218;55.700;38.270;2023-06-04T14:28:21;100326.16;;;14.75;44.51
55347;BME280;41218;55.700;38.270;2023-06-04T14:33:22;100310.94;;;14.62;44.81
55347;BME280;41218;55.700;38.270;2023-06-04T14:38:22;100286.16;;;14.53;44.76
55347;BME280;41218;55.700;38.270;2023-06-04T14:43:23;100277.44;;;14.55;44.70
55347;BME280;41218;55.700;38.270;2023-06-04T14:48:24;100278.72;;;14.61;44.98
55347;BME280;41218;55.700;38.270;2023-06-04T14:53:25;100278.75;;;14.65;45.10
55347;BME280;41218;55.700;38.270;2023-06-04T14:58:25;100287.94;;;14.69;44.84
55347;BME280;41218;55.700;38.270;2023-06-04T15:03:26;100282.28;;;14.61;44.97
55347;BME280;41218;55.700;38.270;2023-06-04T15:08:27;100303.53;;;14.84;45.03
55347;BME280;41218;55.700;38.270;2023-06-04T15:13:27;100297.97;;;14.84;45.00
55347;BME280;41218;55.700;38.270;2023-06-04T15:18:28;100301.59;;;14.85;44.81
55347;BME280;41218;55.700;38.270;2023-06-04T15:23:28;100299.59;;;14.85;44.60
55347;BME280;41218;55.700;38.270;2023-06-04T15:28:29;100294.72;;;14.71;44.50
55347;BME280;41218;55.700;38.270;2023-06-04T15:33:29;100281.09;;;14.59;44.56
55347;BME280;41218;55.700;38.270;2023-06-04T15:38:30;100281.88;;;14.59;44.96
55347;BME280;41218;55.700;38.270;2023-06-04T15:43:31;100290.69;;;14.65;45.06
55347;BME280;41218;55.700;38.270;2023-06-04T15:48:31;100290.25;;;14.63;45.23
55347;BME280;41218;55.700;38.270;2023-06-04T15:53:32;100285.75;;;14.51;45.03
55347;BME280;41218;55.700;38.270;2023-06-04T15:58:33;100288.22;;;14.56;45.24
55347;BME280;41218;55.700;38.270;2023-06-04T16:03:34;100280.19;;;14.48;45.24
55347;BME280;41218;55.700;38.270;2023-06-04T16:08:34;100294.09;;;14.51;45.27
55347;BME280;41218;55.700;38.270;2023-06-04T16:13:36;100286.50;;;14.45;45.43
55347;BME280;41218;55.700;38.270;2023-06-04T16:18:41;100276.13;;;14.38;45.20
55347;BME280;41218;55.700;38.270;2023-06-04T16:23:42;100289.19;;;14.37;45.77
55347;BME280;41218;55.700;38.270;2023-06-04T16:28:42;100264.44;;;14.21;46.04
55347;BME280;41218;55.700;38.270;2023-06-04T16:33:44;100281.56;;;14.27;45.67
55347;BME280;41218;55.700;38.270;2023-06-04T16:38:45;100281.91;;;14.22;46.28
55347;BME280;41218;55.700;38.270;2023-06-04T16:43:46;100294.25;;;14.25;46.93
55347;BME280;41218;55.700;38.270;2023-06-04T16:48:47;100286.97;;;14.13;47.15
55347;BME280;41218;55.700;38.270;2023-06-04T16:53:48;100294.94;;;14.14;47.61
55347;BME280;41218;55.700;38.270;2023-06-04T16:58:49;100283.28;;;14.01;47.67
55347;BME280;41218;55.700;38.270;2023-06-04T17:03:50;100295.63;;;14.04;48.09
55347;BME280;41218;55.700;38.270;2023-06-04T17:08:51;100288.38;;;13.96;48.61
55347;BME280;41218;55.700;38.270;2023-06-04T17:13:51;100301.50;;;13.95;48.78
55347;BME280;41218;55.700;38.270;2023-06-04T17:18:52;100290.22;;;13.85;48.89
55347;BME280;41218;55.700;38.270;2023-06-04T17:23:52;100300.97;;;13.86;49.25
55347;BME280;41218;55.700;38.270;2023-06-04T17:28:53;100301.75;;;13.83;50.00
55347;BME280;41218;55.700;38.270;2023-06-04T17:33:54;100311.63;;;13.80;50.38
55347;BME280;41218;55.700;38.270;2023-06-04T17:38:54;100300.78;;;13.72;50.49
55347;BME280;41218;55.700;38.270;2023-06-04T17:43:58;100305.50;;;13.68;51.14
55347;BME280;41218;55.700;38.270;2023-06-04T17:49:00;100313.28;;;13.55;51.23
55347;BME280;41218;55.700;38.270;2023-06-04T17:54:03;100319.53;;;13.48;51.41
55347;BME280;41218;55.700;38.270;2023-06-04T17:59:07;100317.78;;;13.36;51.97
55347;BME280;41218;55.700;38.270;2023-06-04T18:04:09;100313.16;;;13.21;51.81
55347;BME280;41218;55.700;38.270;2023-06-04T18:09:09;100312.63;;;13.12;52.10
55347;BME280;41218;55.700;38.270;2023-06-04T18:14:10;100312.41;;;12.97;52.08
55347;BME280;41218;55.700;38.270;2023-06-04T18:19:13;100307.31;;;12.76;52.59
55347;BME280;41218;55.700;38.270;2023-06-04T18:24:15;100323.03;;;12.69;52.51
55347;BME280;41218;55.700;38.270;2023-06-04T18:29:16;100304.56;;;12.53;52.71
55347;BME280;41218;55.700;38.270;2023-06-04T18:34:16;100300.63;;;12.31;52.77
55347;BME280;41218;55.700;38.270;2023-06-04T18:39:22;100310.25;;;12.18;53.18
55347;BME280;41218;55.700;38.270;2023-06-04T18:44:26;100320.81;;;12.12;53.31
55347;BME280;41218;55.700;38.270;2023-06-04T18:49:55;100324.59;;;12.00;53.67
55347;BME280;41218;55.700;38.270;2023-06-04T18:55:29;100313.97;;;11.87;53.61
55347;BME280;41218;55.700;38.270;2023-06-04T19:00:38;100302.81;;;11.63;53.61
55347;BME280;41218;55.700;38.270;2023-06-04T19:05:38;100321.31;;;11.59;53.88
55347;BME280;41218;55.700;38.270;2023-06-04T19:10:39;100318.31;;;11.49;53.93
55347;BME280;41218;55.700;38.270;2023-06-04T19:15:39;100314.06;;;11.35;53.95
55347;BME280;41218;55.700;38.270;2023-06-04T19:20:42;100320.16;;;11.25;54.21
55347;BME280;41218;55.700;38.270;2023-06-04T19:25:49;100319.47;;;11.12;54.21
55347;BME280;41218;55.700;38.270;2023-06-04T19:30:51;100315.25;;;10.99;54.39
55347;BME280;41218;55.700;38.270;2023-06-04T19:35:52;100317.28;;;10.86;54.39
55347;BME280;41218;55.700;38.270;2023-06-04T19:40:53;100314.25;;;10.75;54.64
55347;BME280;41218;55.700;38.270;2023-06-04T19:45:54;100305.25;;;10.62;54.69
55347;BME280;41218;55.700;38.270;2023-06-04T19:50:57;100297.75;;;10.47;54.68
55347;BME280;41218;55.700;38.270;2023-06-04T19:56:00;100298.28;;;10.37;54.85
55347;BME280;41218;55.700;38.270;2023-06-04T20:01:01;100302.00;;;10.29;55.11
55347;BME280;41218;55.700;38.270;2023-06-04T20:06:01;100298.56;;;10.19;55.07
55347;BME280;41218;55.700;38.270;2023-06-04T20:11:02;100285.09;;;10.02;54.95
55347;BME280;41218;55.700;38.270;2023-06-04T20:16:03;100284.09;;;9.94;55.24
55347;BME280;41218;55.700;38.270;2023-06-04T20:21:04;100284.50;;;9.80;55.41
55347;BME280;41218;55.700;38.270;2023-06-04T20:26:09;100296.25;;;9.77;55.30
55347;BME280;41218;55.700;38.270;2023-06-04T20:31:10;100296.38;;;9.69;55.45
55347;BME280;41218;55.700;38.270;2023-06-04T20:36:10;100292.75;;;9.52;55.58
55347;BME280;41218;55.700;38.270;2023-06-04T20:41:11;100300.59;;;9.50;55.60
55347;BME280;41218;55.700;38.270;2023-06-04T20:46:12;100293.75;;;9.32;55.75
55347;BME280;41218;55.700;38.270;2023-06-04T20:51:13;100302.34;;;9.30;55.88
55347;BME280;41218;55.700;38.270;2023-06-04T20:56:14;100287.66;;;9.14;56.14
55347;BME280;41218;55.700;38.270;2023-06-04T21:01:14;100288.59;;;9.06;56.17
55347;BME280;41218;55.700;38.270;2023-06-04T21:06:15;100290.09;;;9.03;55.94
55347;BME280;41218;55.700;38.270;2023-06-04T21:11:16;100299.75;;;8.97;55.97
55347;BME280;41218;55.700;38.270;2023-06-04T21:16:16;100298.72;;;8.89;56.45
55347;BME280;41218;55.700;38.270;2023-06-04T21:21:17;100296.09;;;8.80;56.31
55347;BME280;41218;55.700;38.270;2023-06-04T21:26:17;100279.44;;;8.65;56.19
55347;BME280;41218;55.700;38.270;2023-06-04T21:31:18;100282.53;;;8.63;56.54
55347;BME280;41218;55.700;38.270;2023-06-04T21:36:19;100264.59;;;8.45;56.21
55347;BME280;41218;55.700;38.270;2023-06-04T21:41:21;100278.03;;;8.46;56.80
55347;BME280;41218;55.700;38.270;2023-06-04T21:46:22;100261.34;;;8.30;56.56
55347;BME280;41218;55.700;38.270;2023-06-04T21:51:22;100274.31;;;8.30;56.49
55347;BME280;41218;55.700;38.270;2023-06-04T21:56:23;100273.94;;;8.19;56.67
55347;BME280;41218;55.700;38.270;2023-06-04T22:01:23;100280.94;;;8.16;56.91
55347;BME280;41218;55.700;38.270;2023-06-04T22:06:24;100272.44;;;8.09;56.88
55347;BME280;41218;55.700;38.270;2023-06-04T22:11:25;100273.34;;;8.01;56.83
55347;BME280;41218;55.700;38.270;2023-06-04T22:16:25;100279.03;;;7.96;56.82
55347;BME280;41218;55.700;38.270;2023-06-04T22:21:26;100277.97;;;7.88;56.90
55347;BME280;41218;55.700;38.270;2023-06-04T22:26:26;100277.28;;;7.79;56.94
55347;BME280;41218;55.700;38.270;2023-06-04T22:31:27;100272.28;;;7.72;57.37
55347;BME280;41218;55.700;38.270;2023-06-04T22:36:27;100275.41;;;7.71;57.41
55347;BME280;41218;55.700;38.270;2023-06-04T22:41:28;100274.34;;;7.63;57.12
55347;BME280;41218;55.700;38.270;2023-06-04T22:46:28;100273.72;;;7.57;57.65
55347;BME280;41218;55.700;38.270;2023-06-04T22:51:29;100255.22;;;7.46;57.57
55347;BME280;41218;55.700;38.270;2023-06-04T22:56:30;100255.28;;;7.37;57.60
55347;BME280;41218;55.700;38.270;2023-06-04T23:01:30;100260.97;;;7.32;57.70
55347;BME280;41218;55.700;38.270;2023-06-04T23:06:31;100266.00;;;7.30;57.66
55347;BME280;41218;55.700;38.270;2023-06-04T23:11:31;100269.13;;;7.28;57.66
55347;BME280;41218;55.700;38.270;2023-06-04T23:16:32;100270.09;;;7.23;57.51
55347;BME280;41218;55.700;38.270;2023-06-04T23:21:33;100275.03;;;7.18;57.88
55347;BME280;41218;55.700;38.270;2023-06-04T23:26:34;100271.97;;;7.11;57.84
55347;BME280;41218;55.700;38.270;2023-06-04T23:31:34;100275.75;;;7.06;57.82
55347;BME280;41218;55.700;38.270;2023-06-04T23:36:35;100275.13;;;7.00;58.02
55347;BME280;41218;55.700;38.270;2023-06-04T23:41:36;100278.41;;;6.94;57.74
55347;BME280;41218;55.700;38.270;2023-06-04T23:46:38;100258.41;;;6.85;57.91
55347;BME280;41218;55.700;38.270;2023-06-04T23:51:39;100263.09;;;6.84;58.17
55347;BME280;41218;55.700;38.270;2023-06-04T23:56:40;100265.22;;;6.78;57.93
